Airport Information

KTTD - Portland Troutdale Airport

KTTD 191753Z 25008KT 10SM BKN048 16/07 A3027 RMK AO2 SLP251 T01560067 10167 20133 50000


  • General Information

  • Coordinates: N 45°32'57"/ W 122°24'4"
  • Location: N/A
  • Surveyed Elevation: 39 MSL

Operations

Flow Name Active Runways Conditions

Green background denotes normal operations.


Common Frequencies

Callsign Frequency Position Name

More at the Document Center


Charts

Name Description Cycle
BLUE LAKE THREE Page 1 1904
Name Description Cycle
HELNS SIX Page 1 1904
OCITY TWO Page 1 1904